sensor_id;sensor_type;location;lat;lon;timestamp;pressure;altitude;pressure_sealevel;temperature;humidity
12801;BME280;6464;42.494;27.470;2023-05-01T05:19:46;99834.16;;;11.96;100.00
12801;BME280;6464;42.494;27.470;2023-05-01T05:22:13;99822.38;;;12.05;100.00
12801;BME280;6464;42.494;27.470;2023-05-01T05:24:41;99851.13;;;11.89;100.00
12801;BME280;6464;42.494;27.470;2023-05-01T05:27:09;99844.03;;;11.91;100.00
12801;BME280;6464;42.494;27.470;2023-05-01T05:29:36;99847.66;;;11.64;100.00
12801;BME280;6464;42.494;27.470;2023-05-01T05:32:04;99766.25;;;11.28;100.00
12801;BME280;6464;42.494;27.470;2023-05-01T05:34:32;99777.91;;;11.46;100.00
12801;BME280;6464;42.494;27.470;2023-05-01T05:37:01;99797.25;;;11.93;100.00
12801;BME280;6464;42.494;27.470;2023-05-01T05:39:28;99804.81;;;11.79;100.00
12801;BME280;6464;42.494;27.470;2023-05-01T05:41:59;99810.69;;;11.64;100.00
12801;BME280;6464;42.494;27.470;2023-05-01T05:44:28;99690.63;;;11.27;100.00
12801;BME280;6464;42.494;27.470;2023-05-01T05:46:57;99847.00;;;11.82;100.00
12801;BME280;6464;42.494;27.470;2023-05-01T05:49:27;99775.09;;;11.27;100.00
12801;BME280;6464;42.494;27.470;2023-05-01T05:51:58;99952.59;;;12.55;100.00
12801;BME280;6464;42.494;27.470;2023-05-01T05:54:31;99975.41;;;12.58;100.00
12801;BME280;6464;42.494;27.470;2023-05-01T05:57:01;99940.13;;;13.03;100.00
12801;BME280;6464;42.494;27.470;2023-05-01T05:59:33;99867.78;;;12.38;100.00
12801;BME280;6464;42.494;27.470;2023-05-01T06:02:02;99905.53;;;12.64;100.00
12801;BME280;6464;42.494;27.470;2023-05-01T06:04:35;100021.72;;;13.13;100.00
12801;BME280;6464;42.494;27.470;2023-05-01T06:07:16;99920.13;;;12.74;100.00
12801;BME280;6464;42.494;27.470;2023-05-01T06:09:55;99988.81;;;13.21;100.00
12801;BME280;6464;42.494;27.470;2023-05-01T06:12:45;99858.53;;;12.26;100.00
12801;BME280;6464;42.494;27.470;2023-05-01T06:15:27;100063.88;;;13.63;100.00
12801;BME280;6464;42.494;27.470;2023-05-01T06:18:09;99837.31;;;12.72;100.00
12801;BME280;6464;42.494;27.470;2023-05-01T06:20:43;100084.47;;;13.35;100.00
12801;BME280;6464;42.494;27.470;2023-05-01T06:23:13;99942.53;;;12.42;100.00
12801;BME280;6464;42.494;27.470;2023-05-01T06:25:52;99948.22;;;12.54;100.00
12801;BME280;6464;42.494;27.470;2023-05-01T06:28:43;100147.84;;;13.61;100.00
12801;BME280;6464;42.494;27.470;2023-05-01T06:31:12;100072.78;;;13.17;100.00
12801;BME280;6464;42.494;27.470;2023-05-01T06:33:42;100000.06;;;12.82;100.00
12801;BME280;6464;42.494;27.470;2023-05-01T06:36:17;100190.25;;;14.05;100.00
12801;BME280;6464;42.494;27.470;2023-05-01T06:38:51;99980.25;;;12.92;100.00
12801;BME280;6464;42.494;27.470;2023-05-01T06:41:22;99954.56;;;13.38;100.00
12801;BME280;6464;42.494;27.470;2023-05-01T06:43:51;100129.25;;;14.87;100.00
12801;BME280;6464;42.494;27.470;2023-05-01T06:46:23;99998.44;;;14.25;100.00
12801;BME280;6464;42.494;27.470;2023-05-01T06:48:58;100220.59;;;14.62;100.00
12801;BME280;6464;42.494;27.470;2023-05-01T06:51:31;100072.75;;;14.44;100.00
12801;BME280;6464;42.494;27.470;2023-05-01T06:54:03;100089.03;;;14.16;100.00
12801;BME280;6464;42.494;27.470;2023-05-01T06:56:32;100227.06;;;15.54;100.00
12801;BME280;6464;42.494;27.470;2023-05-01T06:59:00;100314.63;;;16.15;100.00
12801;BME280;6464;42.494;27.470;2023-05-01T07:01:29;100114.63;;;15.35;100.00
12801;BME280;6464;42.494;27.470;2023-05-01T07:03:56;100293.41;;;16.67;100.00
12801;BME280;6464;42.494;27.470;2023-05-01T07:06:23;100231.53;;;16.28;100.00
12801;BME280;6464;42.494;27.470;2023-05-01T07:08:53;100267.28;;;16.76;100.00
12801;BME280;6464;42.494;27.470;2023-05-01T07:11:20;100376.72;;;17.75;100.00
12801;BME280;6464;42.494;27.470;2023-05-01T07:13:49;100367.94;;;17.56;100.00
12801;BME280;6464;42.494;27.470;2023-05-01T07:16:16;100589.28;;;18.25;100.00
12801;BME280;6464;42.494;27.470;2023-05-01T07:18:43;100457.16;;;16.59;100.00
12801;BME280;6464;42.494;27.470;2023-05-01T07:21:12;100654.88;;;18.13;100.00
12801;BME280;6464;42.494;27.470;2023-05-01T07:23:39;100613.31;;;17.90;100.00
12801;BME280;6464;42.494;27.470;2023-05-01T07:26:05;100726.53;;;18.56;100.00
12801;BME280;6464;42.494;27.470;2023-05-01T07:28:32;100761.34;;;18.54;100.00
12801;BME280;6464;42.494;27.470;2023-05-01T07:31:01;100756.16;;;17.97;100.00
12801;BME280;6464;42.494;27.470;2023-05-01T07:33:27;100926.09;;;18.35;100.00
12801;BME280;6464;42.494;27.470;2023-05-01T07:35:56;100925.50;;;17.90;100.00
12801;BME280;6464;42.494;27.470;2023-05-01T07:38:22;101096.16;;;18.53;100.00
12801;BME280;6464;42.494;27.470;2023-05-01T07:40:51;101195.31;;;18.45;100.00
12801;BME280;6464;42.494;27.470;2023-05-01T07:43:18;101249.78;;;17.99;100.00
12801;BME280;6464;42.494;27.470;2023-05-01T07:45:53;101171.75;;;17.27;100.00
12801;BME280;6464;42.494;27.470;2023-05-01T07:48:23;101174.16;;;17.33;100.00
12801;BME280;6464;42.494;27.470;2023-05-01T07:50:51;101190.44;;;17.70;100.00
12801;BME280;6464;42.494;27.470;2023-05-01T07:53:20;101223.50;;;17.66;100.00
12801;BME280;6464;42.494;27.470;2023-05-01T07:55:48;101404.00;;;18.36;100.00
12801;BME280;6464;42.494;27.470;2023-05-01T07:58:16;101386.31;;;17.63;100.00
12801;BME280;6464;42.494;27.470;2023-05-01T08:00:47;101435.34;;;17.36;100.00
12801;BME280;6464;42.494;27.470;2023-05-01T08:07:01;101756.19;;;17.05;100.00
12801;BME280;6464;42.494;27.470;2023-05-01T08:09:50;101889.56;;;17.33;100.00
12801;BME280;6464;42.494;27.470;2023-05-01T08:12:28;101903.22;;;17.23;100.00
12801;BME280;6464;42.494;27.470;2023-05-01T08:15:06;102016.03;;;17.91;100.00
12801;BME280;6464;42.494;27.470;2023-05-01T08:17:39;102024.09;;;17.88;100.00
12801;BME280;6464;42.494;27.470;2023-05-01T08:20:08;102076.53;;;18.22;100.00
12801;BME280;6464;42.494;27.470;2023-05-01T08:22:38;102086.97;;;18.92;100.00
12801;BME280;6464;42.494;27.470;2023-05-01T08:25:06;102199.38;;;20.51;100.00
12801;BME280;6464;42.494;27.470;2023-05-01T08:27:33;102225.78;;;21.34;100.00
12801;BME280;6464;42.494;27.470;2023-05-01T08:29:59;102214.84;;;21.82;100.00
12801;BME280;6464;42.494;27.470;2023-05-01T08:32:26;102167.25;;;21.86;100.00
12801;BME280;6464;42.494;27.470;2023-05-01T08:34:53;102241.31;;;22.74;100.00
12801;BME280;6464;42.494;27.470;2023-05-01T08:37:20;102244.97;;;23.31;100.00
12801;BME280;6464;42.494;27.470;2023-05-01T08:39:48;102266.50;;;23.69;100.00
12801;BME280;6464;42.494;27.470;2023-05-01T08:42:15;102269.66;;;23.40;100.00
12801;BME280;6464;42.494;27.470;2023-05-01T08:44:43;102287.91;;;24.26;100.00
12801;BME280;6464;42.494;27.470;2023-05-01T08:47:16;102315.56;;;24.48;100.00
12801;BME280;6464;42.494;27.470;2023-05-01T08:49:44;102311.16;;;24.28;100.00
12801;BME280;6464;42.494;27.470;2023-05-01T08:52:13;102296.13;;;24.05;100.00
12801;BME280;6464;42.494;27.470;2023-05-01T08:54:42;102284.66;;;23.83;100.00
12801;BME280;6464;42.494;27.470;2023-05-01T08:57:11;102251.66;;;22.83;100.00
12801;BME280;6464;42.494;27.470;2023-05-01T08:59:39;102247.31;;;22.40;100.00
12801;BME280;6464;42.494;27.470;2023-05-01T09:02:07;102239.34;;;22.57;100.00
12801;BME280;6464;42.494;27.470;2023-05-01T09:04:36;102203.75;;;22.12;100.00
12801;BME280;6464;42.494;27.470;2023-05-01T09:07:03;102225.13;;;21.93;100.00
12801;BME280;6464;42.494;27.470;2023-05-01T09:09:31;102238.16;;;22.24;100.00
12801;BME280;6464;42.494;27.470;2023-05-01T09:12:00;102261.75;;;23.37;100.00
12801;BME280;6464;42.494;27.470;2023-05-01T09:14:33;102285.78;;;22.81;100.00
12801;BME280;6464;42.494;27.470;2023-05-01T09:16:59;102258.94;;;22.20;100.00
12801;BME280;6464;42.494;27.470;2023-05-01T09:19:26;102210.81;;;21.72;100.00
12801;BME280;6464;42.494;27.470;2023-05-01T09:21:53;102214.91;;;22.64;100.00
12801;BME280;6464;42.494;27.470;2023-05-01T09:24:23;102251.66;;;23.42;100.00
12801;BME280;6464;42.494;27.470;2023-05-01T09:26:50;102282.78;;;24.02;100.00
12801;BME280;6464;42.494;27.470;2023-05-01T09:29:39;102295.53;;;24.70;100.00
12801;BME280;6464;42.494;27.470;2023-05-01T09:32:13;102318.97;;;25.20;100.00
12801;BME280;6464;42.494;27.470;2023-05-01T09:34:40;102323.13;;;26.52;91.88
12801;BME280;6464;42.494;27.470;2023-05-01T09:37:10;102376.63;;;28.34;85.06
12801;BME280;6464;42.494;27.470;2023-05-01T09:39:37;102423.19;;;29.71;75.02
12801;BME280;6464;42.494;27.470;2023-05-01T09:42:04;102391.31;;;29.09;76.26
12801;BME280;6464;42.494;27.470;2023-05-01T09:44:41;102424.72;;;31.30;69.57
12801;BME280;6464;42.494;27.470;2023-05-01T09:47:09;102446.56;;;32.84;62.81
12801;BME280;6464;42.494;27.470;2023-05-01T09:49:45;102439.88;;;32.77;59.82
12801;BME280;6464;42.494;27.470;2023-05-01T09:52:12;102463.41;;;32.68;55.74
12801;BME280;6464;42.494;27.470;2023-05-01T09:54:39;102435.06;;;33.02;57.27
12801;BME280;6464;42.494;27.470;2023-05-01T09:57:06;102423.31;;;32.37;58.58
12801;BME280;6464;42.494;27.470;2023-05-01T09:59:34;102446.13;;;32.68;55.62
12801;BME280;6464;42.494;27.470;2023-05-01T10:02:02;102444.19;;;33.12;55.20
12801;BME280;6464;42.494;27.470;2023-05-01T10:04:29;102470.59;;;34.74;53.96
12801;BME280;6464;42.494;27.470;2023-05-01T10:06:57;102437.00;;;33.11;51.30
12801;BME280;6464;42.494;27.470;2023-05-01T10:09:28;102386.06;;;31.47;53.41
12801;BME280;6464;42.494;27.470;2023-05-01T10:11:55;102420.16;;;31.76;53.60
12801;BME280;6464;42.494;27.470;2023-05-01T10:14:23;102435.94;;;31.83;52.16
12801;BME280;6464;42.494;27.470;2023-05-01T10:16:52;102407.22;;;32.55;55.69
12801;BME280;6464;42.494;27.470;2023-05-01T10:19:22;102435.09;;;34.24;54.24
12801;BME280;6464;42.494;27.470;2023-05-01T10:21:49;102450.41;;;34.56;52.70
12801;BME280;6464;42.494;27.470;2023-05-01T10:24:17;102422.88;;;33.36;53.91
12801;BME280;6464;42.494;27.470;2023-05-01T10:26:47;102386.47;;;30.85;52.94
12801;BME280;6464;42.494;27.470;2023-05-01T10:29:14;102347.19;;;27.86;59.89
12801;BME280;6464;42.494;27.470;2023-05-01T10:31:40;102346.44;;;29.55;62.92
12801;BME280;6464;42.494;27.470;2023-05-01T10:34:08;102367.25;;;29.80;58.02
12801;BME280;6464;42.494;27.470;2023-05-01T10:36:40;102342.97;;;29.14;62.23
12801;BME280;6464;42.494;27.470;2023-05-01T10:39:28;102343.16;;;30.23;64.33
12801;BME280;6464;42.494;27.470;2023-05-01T10:42:02;102353.94;;;31.06;62.78
12801;BME280;6464;42.494;27.470;2023-05-01T10:44:30;102380.63;;;32.57;61.54
12801;BME280;6464;42.494;27.470;2023-05-01T10:46:59;102399.38;;;32.82;58.29
12801;BME280;6464;42.494;27.470;2023-05-01T10:50:03;102384.22;;;31.82;57.90
12801;BME280;6464;42.494;27.470;2023-05-01T10:55:42;102351.97;;;30.62;63.08
12801;BME280;6464;42.494;27.470;2023-05-01T10:58:09;102342.44;;;29.84;64.11
12801;BME280;6464;42.494;27.470;2023-05-01T11:00:36;102334.47;;;28.68;64.24
12801;BME280;6464;42.494;27.470;2023-05-01T11:03:34;102338.38;;;29.15;65.23
12801;BME280;6464;42.494;27.470;2023-05-01T11:06:05;102303.22;;;28.08;67.35
12801;BME280;6464;42.494;27.470;2023-05-01T11:08:35;102265.75;;;27.47;69.65
12801;BME280;6464;42.494;27.470;2023-05-01T11:14:06;102318.06;;;28.30;66.25
12801;BME280;6464;42.494;27.470;2023-05-01T11:16:44;102326.97;;;28.32;67.20
12801;BME280;6464;42.494;27.470;2023-05-01T11:19:44;102304.16;;;27.95;70.92
12801;BME280;6464;42.494;27.470;2023-05-01T11:22:13;102323.34;;;30.21;64.51
12801;BME280;6464;42.494;27.470;2023-05-01T11:24:42;102356.25;;;30.77;63.66
12801;BME280;6464;42.494;27.470;2023-05-01T11:27:12;102314.63;;;29.68;65.46
12801;BME280;6464;42.494;27.470;2023-05-01T11:29:43;102349.66;;;29.96;62.89
12801;BME280;6464;42.494;27.470;2023-05-01T11:32:15;102341.75;;;29.31;63.38
12801;BME280;6464;42.494;27.470;2023-05-01T11:34:44;102340.38;;;29.13;60.24
12801;BME280;6464;42.494;27.470;2023-05-01T11:37:11;102340.69;;;30.07;61.24
12801;BME280;6464;42.494;27.470;2023-05-01T11:39:47;102372.41;;;31.70;59.18
12801;BME280;6464;42.494;27.470;2023-05-01T11:42:14;102362.03;;;31.30;58.86
12801;BME280;6464;42.494;27.470;2023-05-01T11:44:41;102331.69;;;29.21;64.49
12801;BME280;6464;42.494;27.470;2023-05-01T11:47:08;102341.31;;;29.37;61.21
12801;BME280;6464;42.494;27.470;2023-05-01T11:49:35;102319.91;;;28.29;63.86
12801;BME280;6464;42.494;27.470;2023-05-01T11:52:02;102303.47;;;28.18;63.02
12801;BME280;6464;42.494;27.470;2023-05-01T11:54:29;102281.44;;;27.83;65.31
12801;BME280;6464;42.494;27.470;2023-05-01T11:56:58;102322.66;;;28.94;63.32
12801;BME280;6464;42.494;27.470;2023-05-01T11:59:26;102327.13;;;28.43;60.46
12801;BME280;6464;42.494;27.470;2023-05-01T12:01:53;102261.28;;;28.27;65.64
12801;BME280;6464;42.494;27.470;2023-05-01T12:04:24;102313.38;;;28.59;64.11
12801;BME280;6464;42.494;27.470;2023-05-01T12:06:52;102319.00;;;28.56;62.92
12801;BME280;6464;42.494;27.470;2023-05-01T12:09:20;102321.88;;;29.31;62.70
12801;BME280;6464;42.494;27.470;2023-05-01T12:11:48;102334.28;;;28.97;60.32
12801;BME280;6464;42.494;27.470;2023-05-01T12:14:18;102335.00;;;29.37;60.22
12801;BME280;6464;42.494;27.470;2023-05-01T12:16:46;102344.84;;;30.72;59.31
12801;BME280;6464;42.494;27.470;2023-05-01T12:19:14;102366.22;;;31.68;57.53
12801;BME280;6464;42.494;27.470;2023-05-01T12:21:41;102298.31;;;31.54;59.42
12801;BME280;6464;42.494;27.470;2023-05-01T12:24:09;102331.84;;;30.76;61.81
12801;BME280;6464;42.494;27.470;2023-05-01T12:26:36;102359.91;;;31.56;58.74
12801;BME280;6464;42.494;27.470;2023-05-01T12:29:04;102336.97;;;30.56;60.71
12801;BME280;6464;42.494;27.470;2023-05-01T12:31:32;102348.03;;;31.35;58.62
12801;BME280;6464;42.494;27.470;2023-05-01T12:34:00;102334.50;;;30.05;59.28
12801;BME280;6464;42.494;27.470;2023-05-01T12:36:31;102328.69;;;30.58;59.90
12801;BME280;6464;42.494;27.470;2023-05-01T12:38:59;102344.03;;;30.59;58.33
12801;BME280;6464;42.494;27.470;2023-05-01T12:41:37;102349.69;;;30.56;57.18
12801;BME280;6464;42.494;27.470;2023-05-01T12:44:18;102366.09;;;31.25;55.35
12801;BME280;6464;42.494;27.470;2023-05-01T12:46:53;102332.88;;;28.38;56.68
12801;BME280;6464;42.494;27.470;2023-05-01T12:49:21;102340.91;;;29.05;56.86
12801;BME280;6464;42.494;27.470;2023-05-01T12:51:49;102344.44;;;29.69;56.17
12801;BME280;6464;42.494;27.470;2023-05-01T12:54:19;102338.38;;;29.15;56.75
12801;BME280;6464;42.494;27.470;2023-05-01T12:56:46;102355.94;;;29.73;54.84
12801;BME280;6464;42.494;27.470;2023-05-01T12:59:19;102250.88;;;30.07;55.25
12801;BME280;6464;42.494;27.470;2023-05-01T13:01:55;102364.56;;;30.52;54.18
12801;BME280;6464;42.494;27.470;2023-05-01T13:04:23;102366.81;;;30.69;53.54
12801;BME280;6464;42.494;27.470;2023-05-01T13:06:51;102381.19;;;30.36;51.51
12801;BME280;6464;42.494;27.470;2023-05-01T13:09:21;102287.66;;;29.52;55.15
12801;BME280;6464;42.494;27.470;2023-05-01T13:12:05;102326.44;;;29.30;54.88
12801;BME280;6464;42.494;27.470;2023-05-01T13:14:35;102309.16;;;28.67;54.90
12801;BME280;6464;42.494;27.470;2023-05-01T13:17:05;102276.38;;;29.58;57.34
12801;BME280;6464;42.494;27.470;2023-05-01T13:19:32;102343.22;;;29.98;55.74
12801;BME280;6464;42.494;27.470;2023-05-01T13:21:59;102330.84;;;29.69;56.35
12801;BME280;6464;42.494;27.470;2023-05-01T13:24:35;102328.69;;;28.60;54.74
12801;BME280;6464;42.494;27.470;2023-05-01T13:27:03;102261.53;;;27.14;57.28
12801;BME280;6464;42.494;27.470;2023-05-01T13:29:31;102313.59;;;27.60;55.93
12801;BME280;6464;42.494;27.470;2023-05-01T13:31:58;102313.09;;;28.36;58.06
12801;BME280;6464;42.494;27.470;2023-05-01T13:34:29;102273.00;;;27.87;54.21
12801;BME280;6464;42.494;27.470;2023-05-01T13:36:56;102292.94;;;27.45;53.90
12801;BME280;6464;42.494;27.470;2023-05-01T13:39:24;102341.38;;;27.64;52.59
12801;BME280;6464;42.494;27.470;2023-05-01T13:41:51;102334.53;;;27.73;52.77
12801;BME280;6464;42.494;27.470;2023-05-01T13:44:20;102306.91;;;26.52;53.78
12801;BME280;6464;42.494;27.470;2023-05-01T13:46:48;102321.78;;;26.59;53.34
12801;BME280;6464;42.494;27.470;2023-05-01T13:49:16;102262.81;;;27.50;53.53
12801;BME280;6464;42.494;27.470;2023-05-01T13:51:47;102343.00;;;28.22;52.60
12801;BME280;6464;42.494;27.470;2023-05-01T13:54:14;102313.19;;;27.25;52.82
12801;BME280;6464;42.494;27.470;2023-05-01T13:56:42;102294.13;;;27.27;54.76
12801;BME280;6464;42.494;27.470;2023-05-01T13:59:09;102336.41;;;28.66;54.53
12801;BME280;6464;42.494;27.470;2023-05-01T14:01:39;102336.94;;;28.71;54.36
12801;BME280;6464;42.494;27.470;2023-05-01T14:04:14;102344.28;;;29.09;54.82
12801;BME280;6464;42.494;27.470;2023-05-01T14:06:41;102337.53;;;29.27;53.42
12801;BME280;6464;42.494;27.470;2023-05-01T14:09:10;102329.97;;;28.27;54.75
12801;BME280;6464;42.494;27.470;2023-05-01T14:11:42;102339.53;;;28.33;54.42
12801;BME280;6464;42.494;27.470;2023-05-01T14:14:11;102345.09;;;28.71;54.02
12801;BME280;6464;42.494;27.470;2023-05-01T14:16:40;102330.91;;;28.13;55.28
12801;BME280;6464;42.494;27.470;2023-05-01T14:19:08;102322.88;;;27.85;55.62
12801;BME280;6464;42.494;27.470;2023-05-01T14:21:39;102320.28;;;27.83;56.11
12801;BME280;6464;42.494;27.470;2023-05-01T14:24:07;102330.78;;;27.61;54.71
12801;BME280;6464;42.494;27.470;2023-05-01T14:26:35;102323.69;;;27.73;56.76
12801;BME280;6464;42.494;27.470;2023-05-01T14:29:04;102325.44;;;28.80;56.77
12801;BME280;6464;42.494;27.470;2023-05-01T14:31:32;102298.03;;;28.18;60.64
12801;BME280;6464;42.494;27.470;2023-05-01T14:33:59;102316.03;;;28.99;59.42
12801;BME280;6464;42.494;27.470;2023-05-01T14:36:27;102325.75;;;29.39;57.53
12801;BME280;6464;42.494;27.470;2023-05-01T14:38:55;102322.16;;;29.52;58.63
12801;BME280;6464;42.494;27.470;2023-05-01T14:41:22;102300.00;;;28.81;62.90
12801;BME280;6464;42.494;27.470;2023-05-01T14:43:51;102295.81;;;28.77;63.60
12801;BME280;6464;42.494;27.470;2023-05-01T14:46:26;102295.59;;;27.32;61.57
12801;BME280;6464;42.494;27.470;2023-05-01T14:48:53;102272.44;;;27.27;63.67
12801;BME280;6464;42.494;27.470;2023-05-01T14:51:20;102268.84;;;26.98;63.06
12801;BME280;6464;42.494;27.470;2023-05-01T14:53:47;102283.03;;;28.00;64.56
12801;BME280;6464;42.494;27.470;2023-05-01T14:56:14;102285.75;;;28.00;64.25
12801;BME280;6464;42.494;27.470;2023-05-01T14:58:41;102279.63;;;27.69;65.15
12801;BME280;6464;42.494;27.470;2023-05-01T15:01:09;102296.94;;;28.08;62.46
12801;BME280;6464;42.494;27.470;2023-05-01T15:03:36;102286.28;;;26.94;64.47
12801;BME280;6464;42.494;27.470;2023-05-01T15:06:05;102215.00;;;25.90;64.81
12801;BME280;6464;42.494;27.470;2023-05-01T15:08:32;102264.06;;;26.14;66.15
12801;BME280;6464;42.494;27.470;2023-05-01T15:10:59;102308.28;;;27.18;61.11
12801;BME280;6464;42.494;27.470;2023-05-01T15:13:26;102287.28;;;26.02;59.57
12801;BME280;6464;42.494;27.470;2023-05-01T15:15:53;102277.53;;;25.36;62.26
12801;BME280;6464;42.494;27.470;2023-05-01T15:18:22;102276.97;;;26.09;64.55
12801;BME280;6464;42.494;27.470;2023-05-01T15:20:49;102273.00;;;26.60;62.58
12801;BME280;6464;42.494;27.470;2023-05-01T15:23:16;102285.38;;;26.64;63.52
12801;BME280;6464;42.494;27.470;2023-05-01T15:25:42;102284.75;;;26.45;64.33
12801;BME280;6464;42.494;27.470;2023-05-01T15:28:11;102288.59;;;26.25;64.93
12801;BME280;6464;42.494;27.470;2023-05-01T15:30:38;102269.84;;;26.08;70.92
12801;BME280;6464;42.494;27.470;2023-05-01T15:33:09;102214.44;;;25.37;70.64
12801;BME280;6464;42.494;27.470;2023-05-01T15:35:37;102275.63;;;25.54;68.31
12801;BME280;6464;42.494;27.470;2023-05-01T15:38:04;102282.94;;;25.36;67.60
12801;BME280;6464;42.494;27.470;2023-05-01T15:40:31;102278.59;;;25.50;67.79
12801;BME280;6464;42.494;27.470;2023-05-01T15:42:59;102278.31;;;25.38;67.36
12801;BME280;6464;42.494;27.470;2023-05-01T15:45:26;102267.94;;;25.15;68.22
12801;BME280;6464;42.494;27.470;2023-05-01T15:47:53;102264.91;;;25.04;70.17
12801;BME280;6464;42.494;27.470;2023-05-01T15:50:19;102248.22;;;24.47;75.24
12801;BME280;6464;42.494;27.470;2023-05-01T15:52:49;102173.94;;;24.22;85.53
12801;BME280;6464;42.494;27.470;2023-05-01T15:55:16;102223.44;;;24.04;92.84
12801;BME280;6464;42.494;27.470;2023-05-01T15:57:44;102185.22;;;23.04;100.00
12801;BME280;6464;42.494;27.470;2023-05-01T16:00:12;102178.88;;;22.68;100.00
12801;BME280;6464;42.494;27.470;2023-05-01T16:02:41;102173.97;;;21.96;100.00
12801;BME280;6464;42.494;27.470;2023-05-01T16:05:09;102157.38;;;21.86;100.00
12801;BME280;6464;42.494;27.470;2023-05-01T16:07:37;102123.44;;;21.63;100.00
12801;BME280;6464;42.494;27.470;2023-05-01T16:10:07;102095.63;;;21.00;100.00
12801;BME280;6464;42.494;27.470;2023-05-01T16:12:34;102083.88;;;20.81;100.00
12801;BME280;6464;42.494;27.470;2023-05-01T16:15:02;102100.78;;;20.59;100.00
12801;BME280;6464;42.494;27.470;2023-05-01T16:17:30;102101.47;;;20.41;100.00
12801;BME280;6464;42.494;27.470;2023-05-01T16:19:58;102072.53;;;20.02;100.00
12801;BME280;6464;42.494;27.470;2023-05-01T16:22:25;102106.28;;;20.06;100.00
12801;BME280;6464;42.494;27.470;2023-05-01T16:24:52;102079.03;;;19.70;100.00
12801;BME280;6464;42.494;27.470;2023-05-01T16:27:21;102087.31;;;19.62;100.00
12801;BME280;6464;42.494;27.470;2023-05-01T16:29:48;102082.41;;;19.48;100.00
12801;BME280;6464;42.494;27.470;2023-05-01T16:32:15;102098.53;;;19.47;100.00
12801;BME280;6464;42.494;27.470;2023-05-01T16:34:43;102046.88;;;19.18;100.00
12801;BME280;6464;42.494;27.470;2023-05-01T16:37:12;102037.34;;;19.10;100.00
12801;BME280;6464;42.494;27.470;2023-05-01T16:39:39;102009.81;;;18.80;100.00
12801;BME280;6464;42.494;27.470;2023-05-01T16:42:06;102037.25;;;18.86;100.00
12801;BME280;6464;42.494;27.470;2023-05-01T16:44:38;102048.53;;;18.66;100.00
12801;BME280;6464;42.494;27.470;2023-05-01T16:47:05;102049.56;;;18.61;100.00
12801;BME280;6464;42.494;27.470;2023-05-01T16:49:32;102046.69;;;18.39;100.00
12801;BME280;6464;42.494;27.470;2023-05-01T16:52:01;102034.69;;;18.22;100.00
12801;BME280;6464;42.494;27.470;2023-05-01T16:54:28;102058.66;;;18.26;100.00
12801;BME280;6464;42.494;27.470;2023-05-01T16:57:00;102070.59;;;18.12;100.00
12801;BME280;6464;42.494;27.470;2023-05-01T16:59:27;102048.00;;;17.93;100.00
12801;BME280;6464;42.494;27.470;2023-05-01T17:01:56;102037.31;;;17.93;100.00
12801;BME280;6464;42.494;27.470;2023-05-01T17:04:23;102037.63;;;17.82;100.00
12801;BME280;6464;42.494;27.470;2023-05-01T17:06:50;102016.84;;;17.61;100.00
12801;BME280;6464;42.494;27.470;2023-05-01T17:09:17;101941.53;;;17.51;100.00
12801;BME280;6464;42.494;27.470;2023-05-01T17:11:44;101731.19;;;17.09;100.00
12801;BME280;6464;42.494;27.470;2023-05-01T17:14:11;101653.41;;;17.25;100.00
12801;BME280;6464;42.494;27.470;2023-05-01T17:16:38;101410.56;;;17.07;100.00
12801;BME280;6464;42.494;27.470;2023-05-01T17:22:52;100918.53;;;16.61;100.00
12801;BME280;6464;42.494;27.470;2023-05-01T17:25:33;100664.97;;;15.93;100.00
12801;BME280;6464;42.494;27.470;2023-05-01T17:28:21;100598.75;;;16.07;100.00
12801;BME280;6464;42.494;27.470;2023-05-01T17:31:05;100514.03;;;15.98;100.00
12801;BME280;6464;42.494;27.470;2023-05-01T17:33:48;100394.78;;;15.28;100.00
12801;BME280;6464;42.494;27.470;2023-05-01T17:36:29;100341.22;;;15.37;100.00
12801;BME280;6464;42.494;27.470;2023-05-01T17:39:04;100294.69;;;15.08;100.00
12801;BME280;6464;42.494;27.470;2023-05-01T17:41:34;100345.97;;;15.10;100.00
12801;BME280;6464;42.494;27.470;2023-05-01T17:44:06;100322.53;;;14.99;100.00
12801;BME280;6464;42.494;27.470;2023-05-01T17:46:40;100191.63;;;13.94;100.00
12801;BME280;6464;42.494;27.470;2023-05-01T17:49:21;100260.78;;;14.09;100.00
12801;BME280;6464;42.494;27.470;2023-05-01T17:51:52;100443.50;;;15.06;100.00
12801;BME280;6464;42.494;27.470;2023-05-01T17:54:27;100411.19;;;14.75;100.00
12801;BME280;6464;42.494;27.470;2023-05-01T17:56:56;100379.75;;;14.19;100.00
12801;BME280;6464;42.494;27.470;2023-05-01T17:59:25;100325.38;;;13.61;100.00
12801;BME280;6464;42.494;27.470;2023-05-01T18:01:55;100538.84;;;14.90;100.00
12801;BME280;6464;42.494;27.470;2023-05-01T18:04:22;100386.16;;;13.66;100.00
12801;BME280;6464;42.494;27.470;2023-05-01T18:06:52;100546.97;;;14.39;100.00
12801;BME280;6464;42.494;27.470;2023-05-01T18:09:30;100647.47;;;14.73;100.00
12801;BME280;6464;42.494;27.470;2023-05-01T18:12:09;100515.34;;;14.09;100.00
12801;BME280;6464;42.494;27.470;2023-05-01T18:14:39;100384.28;;;13.18;100.00
12801;BME280;6464;42.494;27.470;2023-05-01T18:17:10;100475.38;;;13.66;100.00
12801;BME280;6464;42.494;27.470;2023-05-01T18:19:44;100573.97;;;14.27;100.00
12801;BME280;6464;42.494;27.470;2023-05-01T18:22:23;100588.78;;;14.07;100.00
12801;BME280;6464;42.494;27.470;2023-05-01T18:25:00;100517.06;;;13.60;100.00
12801;BME280;6464;42.494;27.470;2023-05-01T18:27:44;100503.88;;;13.59;100.00
12801;BME280;6464;42.494;27.470;2023-05-01T18:30:22;100640.84;;;14.35;100.00
12801;BME280;6464;42.494;27.470;2023-05-01T18:32:52;100551.31;;;13.40;100.00